Aegean Tiffany — SVAE9 — position and weather

sailwx.info

Track history (hours):
 
Tides and Currents Weather Stations Pressure Air Temp Water Temp Dewpoint Dewpoint Depression Visibility Wind Speed Wind Dir Waves Ship Positions

Aegean Tiffany

Last reported at 2014-Oct-23 20:28 UTC. Time now 2014-Oct-24 10:21 UTC.
Position N 37°55' E 023°14'.

Length 80 m; draft 5.7 m.

Type: Tanker. MMSI: 240870000.

Date/timePositionNaut miles runAvg speedWind from/ knotsBaromVisibWave heightAir tempDewpointWater temp
2014-Oct-23 20:28N 37°55' E 023°14'7 7.7
2014-Oct-23 19:33N 37°57' E 023°23'6 6.0
2014-Oct-23 18:31N 38°01' E 023°29'3 2.7
2014-Oct-23 17:33N 38°02' E 023°32'0 0.0
2014-Oct-23 16:33N 38°02' E 023°32'0 0.0
2014-Oct-23 15:33N 38°02' E 023°32'0 0.0
2014-Oct-23 14:33N 38°02' E 023°32'0 0.0
2014-Oct-23 13:33N 38°02' E 023°32'1 1.0
2014-Oct-23 12:33N 38°02' E 023°31'0 0.0
2014-Oct-23 11:33N 38°02' E 023°31'0 0.0
2014-Oct-23 10:33N 38°02' E 023°31'0 0.0
2014-Oct-23 09:33N 38°02' E 023°31'0 0.0
2014-Oct-23 08:33N 38°02' E 023°31'0 0.0
2014-Oct-23 07:33N 38°02' E 023°31'0 0.0
2014-Oct-23 06:33N 38°02' E 023°31'0 0.0
2014-Oct-23 05:33N 38°02' E 023°31'0 0.0
2014-Oct-23 04:33N 38°02' E 023°31'0 0.0
2014-Oct-23 03:33N 38°02' E 023°31'0 0.0
2014-Oct-23 02:33N 38°02' E 023°31'0 0.0
2014-Oct-23 01:33N 38°02' E 023°31'0 0.0
2014-Oct-23 00:33N 38°02' E 023°31'0 0.0
2014-Oct-22 23:34N 38°02' E 023°31'0 0.0
2014-Oct-22 22:33N 38°02' E 023°31'0 0.0
2014-Oct-22 21:33N 38°02' E 023°31'0 0.1
2014-Oct-22 20:33N 38°02' E 023°31'1 0.1
2014-Oct-22 10:20N 38°02' E 023°32'0 0.0
2014-Oct-22 09:07N 38°02' E 023°32'0 0.0
2014-Oct-22 08:33N 38°02' E 023°32'1 0.5
2014-Oct-22 07:33N 38°02' E 023°31'1 0.5
2014-Oct-22 06:33N 38°02' E 023°32'0 0.0
2014-Oct-21 11:34N 38°02' E 023°32'6 5.5
2014-Oct-21 10:33N 37°57' E 023°34'0 0.0
2014-Oct-21 09:34N 37°57' E 023°34'0 0.0
2014-Oct-21 08:34N 37°57' E 023°34'5 5.3
2014-Oct-21 07:34N 38°02' E 023°32'0 0.1
2014-Oct-21 06:34N 38°02' E 023°32'0 0.2
2014-Oct-21 05:21N 38°02' E 023°32'0 0.0
2014-Oct-21 04:18N 38°02' E 023°32'0 0.0
2014-Oct-21 03:31N 38°02' E 023°32'0 0.0
2014-Oct-21 02:33N 38°02' E 023°32'0 0.0
2014-Oct-21 01:33N 38°02' E 023°32'1 0.8
2014-Oct-21 00:33N 38°02' E 023°31'7 6.6
2014-Oct-20 23:34N 37°58' E 023°25'9 8.3
2014-Oct-20 22:28N 37°55' E 023°14'  
2014-Oct-15 20:33N 37°55' E 023°13'8 7.9
2014-Oct-15 19:34N 37°57' E 023°23'6 6.2
2014-Oct-15 18:33N 38°01' E 023°29'3 0.3
2014-Oct-15 09:16N 38°02' E 023°32'3 3.9
2014-Oct-15 08:33N 38°02' E 023°35'0 0.2
2014-Oct-15 07:33N 38°02' E 023°36'0 0.0
2014-Oct-15 06:33N 38°02' E 023°36'0 0.0
2014-Oct-15 05:34N 38°02' E 023°36'0 0.0
2014-Oct-15 04:34N 38°02' E 023°36'0 0.0
2014-Oct-15 03:34N 38°02' E 023°36'0 0.0
2014-Oct-15 02:34N 38°02' E 023°36'0 0.0
2014-Oct-15 01:34N 38°02' E 023°36'0 0.0
2014-Oct-15 00:33N 38°02' E 023°36'0 0.0
2014-Oct-14 23:33N 38°02' E 023°36'0 0.0
2014-Oct-14 22:33N 38°02' E 023°36'0 0.0
2014-Oct-14 21:34N 38°02' E 023°36'0 0.0
2014-Oct-14 20:34N 38°02' E 023°36'3 2.9
2014-Oct-14 19:33N 38°02' E 023°32'0 0.0
2014-Oct-14 09:34N 38°02' E 023°32'0 0.0
2014-Oct-14 08:34N 38°02' E 023°32'0 0.0
2014-Oct-14 07:34N 38°02' E 023°32'0 0.0
2014-Oct-14 06:33N 38°02' E 023°32'0 0.0
2014-Oct-14 05:33N 38°02' E 023°32'0 0.0
2014-Oct-14 04:33N 38°02' E 023°32'  
Track history (hours):
 
Tides and Currents Weather Stations Pressure Air Temp Water Temp Dewpoint Dewpoint Depression Visibility Wind Speed Wind Dir Waves Ship Positions

Aegean Tiffany

Last reported at 2014-Oct-23 20:28 UTC. Time now 2014-Oct-24 10:21 UTC.
Position N 37°55' E 023°14'.

Length 80 m; draft 5.7 m.

Type: Tanker. MMSI: 240870000.

Date/timePositionNaut miles runAvg speedWind from/ knotsBaromVisibWave heightAir tempDewpointWater temp
2014-Oct-23 20:28N 37°55' E 023°14'7 7.7
2014-Oct-23 19:33N 37°57' E 023°23'6 6.0
2014-Oct-23 18:31N 38°01' E 023°29'3 2.7
2014-Oct-23 17:33N 38°02' E 023°32'0 0.0
2014-Oct-23 16:33N 38°02' E 023°32'0 0.0
2014-Oct-23 15:33N 38°02' E 023°32'0 0.0
2014-Oct-23 14:33N 38°02' E 023°32'0 0.0
2014-Oct-23 13:33N 38°02' E 023°32'1 1.0
2014-Oct-23 12:33N 38°02' E 023°31'0 0.0
2014-Oct-23 11:33N 38°02' E 023°31'0 0.0
2014-Oct-23 10:33N 38°02' E 023°31'0 0.0
2014-Oct-23 09:33N 38°02' E 023°31'0 0.0
2014-Oct-23 08:33N 38°02' E 023°31'0 0.0
2014-Oct-23 07:33N 38°02' E 023°31'0 0.0
2014-Oct-23 06:33N 38°02' E 023°31'0 0.0
2014-Oct-23 05:33N 38°02' E 023°31'0 0.0
2014-Oct-23 04:33N 38°02' E 023°31'0 0.0
2014-Oct-23 03:33N 38°02' E 023°31'0 0.0
2014-Oct-23 02:33N 38°02' E 023°31'0 0.0
2014-Oct-23 01:33N 38°02' E 023°31'0 0.0
2014-Oct-23 00:33N 38°02' E 023°31'0 0.0
2014-Oct-22 23:34N 38°02' E 023°31'0 0.0
2014-Oct-22 22:33N 38°02' E 023°31'0 0.0
2014-Oct-22 21:33N 38°02' E 023°31'0 0.1
2014-Oct-22 20:33N 38°02' E 023°31'1 0.1
2014-Oct-22 10:20N 38°02' E 023°32'0 0.0
2014-Oct-22 09:07N 38°02' E 023°32'0 0.0
2014-Oct-22 08:33N 38°02' E 023°32'1 0.5
2014-Oct-22 07:33N 38°02' E 023°31'1 0.5
2014-Oct-22 06:33N 38°02' E 023°32'0 0.0
2014-Oct-21 11:34N 38°02' E 023°32'6 5.5
2014-Oct-21 10:33N 37°57' E 023°34'0 0.0
2014-Oct-21 09:34N 37°57' E 023°34'0 0.0
2014-Oct-21 08:34N 37°57' E 023°34'5 5.3
2014-Oct-21 07:34N 38°02' E 023°32'0 0.1
2014-Oct-21 06:34N 38°02' E 023°32'0 0.2
2014-Oct-21 05:21N 38°02' E 023°32'0 0.0
2014-Oct-21 04:18N 38°02' E 023°32'0 0.0
2014-Oct-21 03:31N 38°02' E 023°32'0 0.0
2014-Oct-21 02:33N 38°02' E 023°32'0 0.0
2014-Oct-21 01:33N 38°02' E 023°32'1 0.8
2014-Oct-21 00:33N 38°02' E 023°31'7 6.6
2014-Oct-20 23:34N 37°58' E 023°25'9 8.3
2014-Oct-20 22:28N 37°55' E 023°14'  
2014-Oct-15 20:33N 37°55' E 023°13'8 7.9
2014-Oct-15 19:34N 37°57' E 023°23'6 6.2
2014-Oct-15 18:33N 38°01' E 023°29'3 0.3
2014-Oct-15 09:16N 38°02' E 023°32'3 3.9
2014-Oct-15 08:33N 38°02' E 023°35'0 0.2
2014-Oct-15 07:33N 38°02' E 023°36'0 0.0
2014-Oct-15 06:33N 38°02' E 023°36'0 0.0
2014-Oct-15 05:34N 38°02' E 023°36'0 0.0
2014-Oct-15 04:34N 38°02' E 023°36'0 0.0
2014-Oct-15 03:34N 38°02' E 023°36'0 0.0
2014-Oct-15 02:34N 38°02' E 023°36'0 0.0
2014-Oct-15 01:34N 38°02' E 023°36'0 0.0
2014-Oct-15 00:33N 38°02' E 023°36'0 0.0
2014-Oct-14 23:33N 38°02' E 023°36'0 0.0
2014-Oct-14 22:33N 38°02' E 023°36'0 0.0
2014-Oct-14 21:34N 38°02' E 023°36'0 0.0
2014-Oct-14 20:34N 38°02' E 023°36'3 2.9
2014-Oct-14 19:33N 38°02' E 023°32'0 0.0
2014-Oct-14 09:34N 38°02' E 023°32'0 0.0
2014-Oct-14 08:34N 38°02' E 023°32'0 0.0
2014-Oct-14 07:34N 38°02' E 023°32'0 0.0
2014-Oct-14 06:33N 38°02' E 023°32'0 0.0
2014-Oct-14 05:33N 38°02' E 023°32'0 0.0
2014-Oct-14 04:33N 38°02' E 023°32'  

Dump ship's entire track history